Time;durP1;ratioP1;P1;durP2;ratioP2;P2;SDS_P1;SDS_P2;PMS_P1;PMS_P2;Temp;Humidity;BMP_temperature;BMP_pressure;BME280_temperature;BME280_humidity;BME280_pressure;Samples;Min_cycle;Max_cycle;Signal;HPM_P1;HPM_P2
2022/06/15 00:01:02;;;;;;;;;;;22.00;68.00;;;;;;5056214;28;19912;-67
2022/06/15 00:03:29;;;;;;;;;;;22.00;67.50;;;;;;5056230;28;19911;-67
2022/06/15 00:06:04;;;;;;;;;;;21.90;67.60;;;;;;5055945;28;19947;-66
2022/06/15 00:08:29;;;;;;;;;;;22.00;68.10;;;;;;5055901;28;20364;-67
2022/06/15 00:10:55;;;;;;;;;;;22.00;68.00;;;;;;5056234;28;19905;-67
2022/06/15 00:13:21;;;;;;;;;;;22.00;68.20;;;;;;5055779;28;20325;-67
2022/06/15 00:15:48;;;;;;;;;;;22.00;68.20;;;;;;5055839;28;19905;-67
2022/06/15 00:18:13;;;;;;;;;;;22.00;68.20;;;;;;5055798;28;20265;-67
2022/06/15 00:20:39;;;;;;;;;;;21.90;67.10;;;;;;5054712;28;19918;-67
2022/06/15 00:23:04;;;;;;;;;;;22.00;66.20;;;;;;5055878;28;20351;-66
2022/06/15 00:25:30;;;;;;;;;;;22.00;66.60;;;;;;5055602;28;20277;-68
2022/06/15 00:27:56;;;;;;;;;;;22.00;67.10;;;;;;5055649;28;19905;-66
2022/06/15 00:30:21;;;;;;;;;;;22.00;66.60;;;;;;5056018;28;19911;-67
2022/06/15 00:32:47;;;;;;;;;;;22.00;67.10;;;;;;5055558;28;19959;-67
2022/06/15 00:35:13;;;;;;;;;;;22.00;66.90;;;;;;5055781;28;19905;-67
2022/06/15 00:37:39;;;;;;;;;;;22.00;67.30;;;;;;5055457;28;19905;-66
2022/06/15 00:40:07;;;;;;;;;;;21.90;68.00;;;;;;5055075;28;19920;-67
2022/06/15 00:42:34;;;;;;;;;;;21.80;68.00;;;;;;5055252;28;19908;-67
2022/06/15 00:45:00;;;;;;;;;;;21.80;68.90;;;;;;5055619;28;19905;-66
2022/06/15 00:47:28;;;;;;;;;;;21.70;68.50;;;;;;5055451;28;20610;-66
2022/06/15 00:49:55;;;;;;;;;;;21.70;68.20;;;;;;5055789;28;20250;-67
2022/06/15 00:52:32;;;;;;;;;;;21.70;68.20;;;;;;5055205;28;19908;-66
2022/06/15 00:54:58;;;;;;;;;;;21.70;67.00;;;;;;5055053;28;20002;-67
2022/06/15 00:57:25;;;;;;;;;;;21.70;66.70;;;;;;5055235;28;19917;-67
2022/06/15 00:59:55;;;;;;;;;;;21.70;67.50;;;;;;5051531;28;19924;-67
2022/06/15 01:02:21;;;;;;;;;;;21.70;67.70;;;;;;5051864;28;19912;-67
2022/06/15 01:04:48;;;;;;;;;;;21.60;68.20;;;;;;5053067;28;19912;-66
2022/06/15 01:07:46;;;;;;;;;;;21.60;68.20;;;;;;5054415;28;19935;-67
2022/06/15 01:10:30;;;;;;;;;;;21.60;69.60;;;;;;5031962;28;19964;-67
2022/06/15 01:13:01;;;;;;;;;;;21.50;69.70;;;;;;5054229;28;19956;-66
2022/06/15 01:15:36;;;;;;;;;;;21.50;69.60;;;;;;5054529;28;20426;-67
2022/06/15 01:18:17;;;;;;;;;;;21.40;70.90;;;;;;5054692;28;19905;-67
2022/06/15 01:20:48;;;;;;;;;;;21.40;70.30;;;;;;5054533;28;19912;-66
2022/06/15 01:23:14;;;;;;;;;;;21.40;69.70;;;;;;5054355;28;20361;-67
2022/06/15 01:25:49;;;;;;;;;;;21.40;70.00;;;;;;5054450;28;19913;-66
2022/06/15 01:28:33;;;;;;;;;;;21.30;70.00;;;;;;5054506;28;19909;-67
2022/06/15 01:31:13;;;;;;;;;;;21.30;69.90;;;;;;5054332;28;19912;-66
2022/06/15 01:33:39;;;;;;;;;;;21.30;69.60;;;;;;5054332;28;19916;-66
2022/06/15 01:36:04;;;;;;;;;;;21.30;69.10;;;;;;5054157;28;19904;-66
2022/06/15 01:38:33;;;;;;;;;;;21.40;67.90;;;;;;5054612;28;19912;-66
2022/06/15 01:41:17;;;;;;;;;;;21.40;67.70;;;;;;5054330;28;19916;-66
2022/06/15 01:44:05;;;;;;;;;;;21.40;67.80;;;;;;5054328;28;19905;-66
2022/06/15 01:46:31;;;;;;;;;;;21.40;67.30;;;;;;5053990;28;19909;-66
2022/06/15 01:48:57;;;;;;;;;;;21.40;67.40;;;;;;5054237;28;20380;-66
2022/06/15 01:51:25;;;;;;;;;;;21.40;69.30;;;;;;5054240;28;19999;-67
2022/06/15 01:54:11;;;;;;;;;;;21.40;70.30;;;;;;5054168;28;19915;-66
2022/06/15 01:56:39;;;;;;;;;;;21.40;70.50;;;;;;5053563;28;19905;-66
2022/06/15 01:59:10;;;;;;;;;;;21.40;69.90;;;;;;5053877;28;19904;-67
2022/06/15 02:01:45;;;;;;;;;;;21.30;69.50;;;;;;5053993;28;19952;-67
2022/06/15 02:04:10;;;;;;;;;;;21.30;68.70;;;;;;5053786;28;19905;-66
2022/06/15 02:06:39;;;;;;;;;;;21.30;68.40;;;;;;5053880;28;19928;-67
2022/06/15 02:09:09;;;;;;;;;;;21.20;68.60;;;;;;5053753;28;19909;-66
2022/06/15 02:11:36;;;;;;;;;;;21.10;70.60;;;;;;5053736;28;19905;-67
2022/06/15 02:14:07;;;;;;;;;;;20.90;70.90;;;;;;5053261;28;19916;-66
2022/06/15 02:16:35;;;;;;;;;;;20.80;72.20;;;;;;5053489;28;19931;-66
2022/06/15 02:19:03;;;;;;;;;;;20.80;71.90;;;;;;5053435;28;19905;-67
2022/06/15 02:21:29;;;;;;;;;;;20.80;71.10;;;;;;5053391;28;19920;-69
2022/06/15 02:23:56;;;;;;;;;;;20.80;70.00;;;;;;5053533;28;20299;-67
2022/06/15 02:26:24;;;;;;;;;;;20.80;68.10;;;;;;5053606;28;19905;-65
2022/06/15 02:28:51;;;;;;;;;;;20.80;68.70;;;;;;5053667;28;19904;-66
2022/06/15 02:31:17;;;;;;;;;;;20.90;68.30;;;;;;5053593;28;19905;-67
2022/06/15 02:33:47;;;;;;;;;;;21.00;68.00;;;;;;5053217;28;19904;-67
2022/06/15 02:36:13;;;;;;;;;;;21.00;68.00;;;;;;5053382;28;20003;-66
2022/06/15 02:38:39;;;;;;;;;;;21.10;67.60;;;;;;5053406;28;20345;-67
2022/06/15 02:41:04;;;;;;;;;;;21.10;69.10;;;;;;5053888;28;19912;-70
2022/06/15 02:43:31;;;;;;;;;;;21.00;70.20;;;;;;5052916;28;19911;-66
2022/06/15 02:45:58;;;;;;;;;;;21.00;70.00;;;;;;5053268;28;19936;-65
2022/06/15 02:48:23;;;;;;;;;;;21.00;70.00;;;;;;5053356;28;20051;-67
2022/06/15 02:51:01;;;;;;;;;;;21.00;70.50;;;;;;5053043;28;19944;-66
2022/06/15 02:53:29;;;;;;;;;;;20.90;70.30;;;;;;5053468;28;19905;-66
2022/06/15 02:55:55;;;;;;;;;;;20.90;68.70;;;;;;5053243;28;20357;-66
2022/06/15 02:58:24;;;;;;;;;;;20.90;69.10;;;;;;5053154;28;20353;-66
2022/06/15 03:00:50;;;;;;;;;;;20.80;69.80;;;;;;5051855;28;20361;-66
2022/06/15 03:03:16;;;;;;;;;;;20.80;68.90;;;;;;5052964;28;20042;-66
2022/06/15 03:05:47;;;;;;;;;;;20.90;69.90;;;;;;5053472;28;20345;-66
2022/06/15 03:08:13;;;;;;;;;;;20.90;69.50;;;;;;5053207;28;19905;-67
2022/06/15 03:10:38;;;;;;;;;;;20.80;69.00;;;;;;5053298;28;19912;-66
2022/06/15 03:13:04;;;;;;;;;;;20.90;68.90;;;;;;5052585;28;19917;-67
2022/06/15 03:15:29;;;;;;;;;;;20.90;68.60;;;;;;5053186;28;20353;-66
2022/06/15 03:17:55;;;;;;;;;;;20.80;69.60;;;;;;5052766;28;19966;-66
2022/06/15 03:20:20;;;;;;;;;;;20.80;69.40;;;;;;5052797;28;19952;-66
2022/06/15 03:22:46;;;;;;;;;;;20.80;69.60;;;;;;5049626;28;19909;-66
2022/06/15 03:25:12;;;;;;;;;;;20.80;68.40;;;;;;5050313;28;19915;-66
2022/06/15 03:27:37;;;;;;;;;;;20.80;68.00;;;;;;5052742;28;19911;-67
2022/06/15 03:30:06;;;;;;;;;;;20.90;67.70;;;;;;5053078;28;19915;-66
2022/06/15 03:32:32;;;;;;;;;;;20.90;67.80;;;;;;5052858;28;19904;-67
2022/06/15 03:34:57;;;;;;;;;;;20.90;67.90;;;;;;5053032;28;19905;-67
2022/06/15 03:37:23;;;;;;;;;;;20.80;68.30;;;;;;5053583;28;20387;-66
2022/06/15 03:39:48;;;;;;;;;;;20.80;69.60;;;;;;5052727;28;19935;-67
2022/06/15 03:42:15;;;;;;;;;;;20.80;69.30;;;;;;5053094;28;19911;-67
2022/06/15 03:44:41;;;;;;;;;;;20.70;68.80;;;;;;5052891;28;19951;-68
2022/06/15 03:47:12;;;;;;;;;;;20.70;70.40;;;;;;5052872;28;19905;-66
2022/06/15 03:49:38;;;;;;;;;;;20.70;71.40;;;;;;5052642;28;19908;-66
2022/06/15 03:52:04;;;;;;;;;;;20.60;71.20;;;;;;5052699;28;19950;-67
2022/06/15 03:54:29;;;;;;;;;;;20.50;71.00;;;;;;5052707;28;19905;-67
2022/06/15 03:56:55;;;;;;;;;;;20.50;70.80;;;;;;5056092;28;20257;-66
2022/06/15 03:59:21;;;;;;;;;;;20.50;70.40;;;;;;5056207;28;19904;-66
2022/06/15 04:01:47;;;;;;;;;;;20.60;70.60;;;;;;5056080;28;19912;-66
2022/06/15 04:04:13;;;;;;;;;;;20.60;70.70;;;;;;5056276;28;20269;-66
2022/06/15 04:06:38;;;;;;;;;;;20.60;70.30;;;;;;5055932;28;19905;-66
2022/06/15 04:09:04;;;;;;;;;;;20.60;70.50;;;;;;5056356;28;19904;-66
2022/06/15 04:14:14;;;;;;;;;;;20.60;71.30;;;;;;5056169;28;19966;-66
2022/06/15 04:16:39;;;;;;;;;;;20.60;72.10;;;;;;5055763;28;19991;-66
2022/06/15 04:19:07;;;;;;;;;;;20.70;70.70;;;;;;5056123;28;19912;-66
2022/06/15 04:21:32;;;;;;;;;;;20.70;70.30;;;;;;5055828;28;20357;-67
2022/06/15 04:23:58;;;;;;;;;;;20.70;69.60;;;;;;5055739;28;19916;-66
2022/06/15 04:26:24;;;;;;;;;;;20.80;68.90;;;;;;5055764;28;19915;-67
2022/06/15 04:28:49;;;;;;;;;;;21.00;68.90;;;;;;5055568;28;19974;-66
2022/06/15 04:31:15;;;;;;;;;;;21.00;68.10;;;;;;5055544;28;19927;-66
2022/06/15 04:33:41;;;;;;;;;;;21.10;67.50;;;;;;5055631;28;19944;-67
2022/06/15 04:36:07;;;;;;;;;;;21.20;67.00;;;;;;5055569;28;19912;-66
2022/06/15 04:38:32;;;;;;;;;;;21.30;67.90;;;;;;5055535;28;20432;-66
2022/06/15 04:40:58;;;;;;;;;;;21.30;66.30;;;;;;5055440;28;20019;-67
2022/06/15 04:43:24;;;;;;;;;;;21.40;67.70;;;;;;5055470;28;20001;-67
2022/06/15 04:45:49;;;;;;;;;;;21.40;68.00;;;;;;5055414;28;19905;-66
2022/06/15 04:48:15;;;;;;;;;;;21.50;68.70;;;;;;5055407;28;19954;-66
2022/06/15 04:50:41;;;;;;;;;;;21.60;67.50;;;;;;5055372;28;19908;-66
2022/06/15 04:53:07;;;;;;;;;;;21.60;68.00;;;;;;5055048;28;19966;-67
2022/06/15 04:55:33;;;;;;;;;;;21.70;67.50;;;;;;5055425;28;19905;-67
2022/06/15 04:57:59;;;;;;;;;;;21.70;67.50;;;;;;5054855;28;19909;-67
2022/06/15 05:00:26;;;;;;;;;;;21.60;68.00;;;;;;5055097;28;19913;-69
2022/06/15 05:02:51;;;;;;;;;;;21.70;68.50;;;;;;5055014;28;19909;-68
2022/06/15 05:05:17;;;;;;;;;;;21.70;68.30;;;;;;5055333;28;19911;-66
2022/06/15 05:07:43;;;;;;;;;;;21.70;69.00;;;;;;5054557;28;20206;-66
2022/06/15 05:10:19;;;;;;;;;;;21.70;68.00;;;;;;5054734;28;19912;-68
2022/06/15 05:12:45;;;;;;;;;;;21.70;67.80;;;;;;5054734;28;19917;-67
2022/06/15 05:15:13;;;;;;;;;;;21.70;68.80;;;;;;5054723;28;19912;-67
2022/06/15 05:17:39;;;;;;;;;;;21.70;69.40;;;;;;5054677;28;19904;-69
2022/06/15 05:20:05;;;;;;;;;;;21.80;69.60;;;;;;5054600;28;19913;-67
2022/06/15 05:22:30;;;;;;;;;;;21.80;70.20;;;;;;5054696;28;19912;-69
2022/06/15 05:24:56;;;;;;;;;;;21.80;69.60;;;;;;5054716;28;19904;-69
2022/06/15 05:27:22;;;;;;;;;;;21.90;69.10;;;;;;5054859;28;19909;-67
2022/06/15 05:29:47;;;;;;;;;;;21.90;69.00;;;;;;5054559;28;19904;-67
2022/06/15 05:32:13;;;;;;;;;;;22.00;68.10;;;;;;5054518;28;19905;-69
2022/06/15 05:34:38;;;;;;;;;;;22.10;67.90;;;;;;5054285;28;19911;-67
2022/06/15 05:37:04;;;;;;;;;;;22.10;67.40;;;;;;5054270;28;20380;-69
2022/06/15 05:39:30;;;;;;;;;;;22.20;67.90;;;;;;5053870;28;19905;-66
2022/06/15 05:41:55;;;;;;;;;;;22.20;67.70;;;;;;5053921;28;19916;-66
2022/06/15 05:46:54;;;;;;;;;;;22.30;66.40;;;;;;5053953;28;19904;-67
2022/06/15 05:49:19;;;;;;;;;;;22.40;66.20;;;;;;5053698;28;19908;-65
2022/06/15 05:51:45;;;;;;;;;;;22.40;65.70;;;;;;5053834;28;19999;-66
2022/06/15 05:54:11;;;;;;;;;;;22.50;65.80;;;;;;5053984;28;19905;-67
2022/06/15 05:56:37;;;;;;;;;;;22.60;66.30;;;;;;5053804;28;19908;-67
2022/06/15 05:59:02;;;;;;;;;;;22.70;65.60;;;;;;5053909;28;19912;-67
2022/06/15 06:01:29;;;;;;;;;;;22.70;65.30;;;;;;5053798;28;19916;-66
2022/06/15 06:03:55;;;;;;;;;;;22.70;65.10;;;;;;5053961;28;19905;-67
2022/06/15 06:06:20;;;;;;;;;;;22.80;64.70;;;;;;5053880;28;19905;-67
2022/06/15 06:08:46;;;;;;;;;;;22.90;64.30;;;;;;5053614;28;20000;-67
2022/06/15 06:11:12;;;;;;;;;;;22.90;64.40;;;;;;5053645;28;20429;-67
2022/06/15 06:13:38;;;;;;;;;;;23.00;64.20;;;;;;5053374;28;20026;-66
2022/06/15 06:16:03;;;;;;;;;;;23.10;63.90;;;;;;5053581;28;19912;-66
2022/06/15 06:18:29;;;;;;;;;;;23.10;63.40;;;;;;5052768;28;20396;-66
2022/06/15 06:20:54;;;;;;;;;;;23.20;63.60;;;;;;5053449;28;20385;-67
2022/06/15 06:23:20;;;;;;;;;;;23.20;62.40;;;;;;5053486;28;19912;-67
2022/06/15 06:25:50;;;;;;;;;;;23.30;61.80;;;;;;5053166;28;20261;-67
2022/06/15 06:28:34;;;;;;;;;;;23.40;61.10;;;;;;5053514;28;19966;-68
2022/06/15 06:31:01;;;;;;;;;;;23.40;61.10;;;;;;5053555;28;19905;-68
2022/06/15 06:33:27;;;;;;;;;;;23.50;61.00;;;;;;5053156;28;19905;-67
2022/06/15 06:35:53;;;;;;;;;;;23.50;60.90;;;;;;5053539;28;19904;-67
2022/06/15 06:38:21;;;;;;;;;;;23.60;60.60;;;;;;5053059;28;20015;-67
2022/06/15 06:40:54;;;;;;;;;;;23.70;61.00;;;;;;5053469;28;19920;-66
2022/06/15 06:43:19;;;;;;;;;;;23.80;60.60;;;;;;5053601;28;19904;-67
2022/06/15 06:45:45;;;;;;;;;;;23.90;60.20;;;;;;5053390;28;19912;-66
2022/06/15 06:48:10;;;;;;;;;;;23.90;59.80;;;;;;5053550;28;20269;-67
2022/06/15 06:50:37;;;;;;;;;;;24.00;58.30;;;;;;5053180;28;19909;-67
2022/06/15 06:53:03;;;;;;;;;;;24.00;58.70;;;;;;5053629;28;19904;-67
2022/06/15 06:55:29;;;;;;;;;;;24.00;59.30;;;;;;5053398;28;19905;-66
2022/06/15 06:57:55;;;;;;;;;;;24.10;59.40;;;;;;5053197;28;19912;-66
2022/06/15 07:00:21;;;;;;;;;;;24.10;58.90;;;;;;5053273;28;20332;-66
2022/06/15 07:02:46;;;;;;;;;;;24.20;59.80;;;;;;5053235;28;19943;-66
2022/06/15 07:05:12;;;;;;;;;;;24.20;59.20;;;;;;5053279;28;19928;-67
2022/06/15 07:07:38;;;;;;;;;;;24.30;60.00;;;;;;5053165;28;19911;-66
2022/06/15 07:10:03;;;;;;;;;;;24.30;59.40;;;;;;5053139;28;19908;-67
2022/06/15 07:12:29;;;;;;;;;;;24.40;59.40;;;;;;5052942;28;20015;-66
2022/06/15 07:14:54;;;;;;;;;;;24.40;60.00;;;;;;5053175;28;19904;-66
2022/06/15 07:17:20;;;;;;;;;;;24.50;60.30;;;;;;5052994;28;19905;-66
2022/06/15 07:19:47;;;;;;;;;;;24.60;59.50;;;;;;5052895;28;19909;-66
2022/06/15 07:22:13;;;;;;;;;;;24.60;59.50;;;;;;5053198;28;19905;-67
2022/06/15 07:24:38;;;;;;;;;;;24.70;59.00;;;;;;5052959;28;19911;-67
2022/06/15 07:27:04;;;;;;;;;;;24.80;59.10;;;;;;5052834;28;19909;-67
2022/06/15 07:29:30;;;;;;;;;;;24.80;59.20;;;;;;5054466;28;19905;-66
2022/06/15 07:31:56;;;;;;;;;;;24.80;59.20;;;;;;5056896;28;20356;-69
2022/06/15 07:34:22;;;;;;;;;;;24.90;59.00;;;;;;5056590;28;19913;-67
2022/06/15 07:36:47;;;;;;;;;;;24.90;58.40;;;;;;5056896;28;19958;-67
2022/06/15 07:39:17;;;;;;;;;;;24.90;58.70;;;;;;5056790;28;19905;-67
2022/06/15 07:41:42;;;;;;;;;;;25.00;58.30;;;;;;5056707;28;19913;-66
2022/06/15 07:44:08;;;;;;;;;;;25.00;57.20;;;;;;5056517;28;19905;-67
2022/06/15 07:46:34;;;;;;;;;;;25.00;56.70;;;;;;5056371;28;19952;-67
2022/06/15 07:51:46;;;;;;;;;;;25.20;57.10;;;;;;5056734;28;19916;-67
2022/06/15 07:54:13;;;;;;;;;;;25.20;56.80;;;;;;5056574;28;19909;-67
2022/06/15 07:56:39;;;;;;;;;;;25.30;56.70;;;;;;5056500;28;19944;-67
2022/06/15 07:59:05;;;;;;;;;;;25.40;56.80;;;;;;5056228;28;19904;-67
2022/06/15 08:01:31;;;;;;;;;;;25.40;56.80;;;;;;5056115;28;20385;-66
2022/06/15 08:03:56;;;;;;;;;;;25.50;56.20;;;;;;5056042;28;19912;-67
2022/06/15 08:06:23;;;;;;;;;;;25.50;54.90;;;;;;5056052;28;19911;-67
2022/06/15 08:08:49;;;;;;;;;;;25.50;55.80;;;;;;5055888;28;19999;-67
2022/06/15 08:11:15;;;;;;;;;;;25.60;55.20;;;;;;5055944;28;19948;-67
2022/06/15 08:13:41;;;;;;;;;;;25.60;56.20;;;;;;5055703;28;19916;-67
2022/06/15 08:16:07;;;;;;;;;;;25.70;55.60;;;;;;5055740;28;19911;-66
2022/06/15 08:18:34;;;;;;;;;;;25.80;54.60;;;;;;5056069;28;19905;-66
2022/06/15 08:21:06;;;;;;;;;;;25.90;55.10;;;;;;5055899;28;19945;-66
2022/06/15 08:23:33;;;;;;;;;;;25.90;55.40;;;;;;5055449;28;19909;-67
2022/06/15 08:26:01;;;;;;;;;;;26.00;55.00;;;;;;5054706;28;19909;-67
2022/06/15 08:28:30;;;;;;;;;;;26.10;53.20;;;;;;5055863;28;19905;-66
2022/06/15 08:30:55;;;;;;;;;;;26.10;53.50;;;;;;5055369;28;19904;-67
2022/06/15 08:33:23;;;;;;;;;;;26.10;53.70;;;;;;5055163;28;19911;-66
2022/06/15 08:35:50;;;;;;;;;;;26.20;54.20;;;;;;5055699;28;19955;-69
2022/06/15 08:38:17;;;;;;;;;;;26.30;54.60;;;;;;5055160;28;20352;-69
2022/06/15 08:40:42;;;;;;;;;;;26.40;54.30;;;;;;5054335;28;19913;-69
2022/06/15 08:43:11;;;;;;;;;;;26.40;54.20;;;;;;5054997;28;19905;-68
2022/06/15 08:45:39;;;;;;;;;;;26.60;57.70;;;;;;5055691;28;19905;-66
2022/06/15 08:48:24;;;;;;;;;;;26.60;56.80;;;;;;5055485;28;20003;-73
2022/06/15 08:50:55;;;;;;;;;;;26.70;56.50;;;;;;5055213;28;19959;-69
2022/06/15 08:53:27;;;;;;;;;;;26.70;55.80;;;;;;5055137;28;19947;-69
2022/06/15 08:56:02;;;;;;;;;;;26.70;53.80;;;;;;5055393;28;19908;-69
2022/06/15 08:58:57;;;;;;;;;;;26.80;54.70;;;;;;5055042;28;19905;-69
2022/06/15 09:01:28;;;;;;;;;;;26.80;54.90;;;;;;5044189;28;19969;-70
2022/06/15 09:04:06;;;;;;;;;;;26.90;53.60;;;;;;5052401;28;19959;-69
2022/06/15 09:07:10;;;;;;;;;;;27.00;53.70;;;;;;5052266;28;19908;-70
2022/06/15 09:09:35;;;;;;;;;;;27.10;54.70;;;;;;5012826;28;20379;-70
2022/06/15 09:15:19;;;;;;;;;;;27.30;54.00;;;;;;5038462;28;19911;-71
2022/06/15 09:17:46;;;;;;;;;;;27.40;52.90;;;;;;5044898;28;19909;-70
2022/06/15 09:20:17;;;;;;;;;;;27.50;52.60;;;;;;5051781;28;19917;-70
2022/06/15 09:22:55;;;;;;;;;;;27.60;52.70;;;;;;5051529;28;19909;-68
2022/06/15 09:25:23;;;;;;;;;;;27.70;52.50;;;;;;5054260;28;20280;-68
2022/06/15 09:27:59;;;;;;;;;;;27.80;52.30;;;;;;5054296;28;19904;-68
2022/06/15 09:30:31;;;;;;;;;;;27.80;52.30;;;;;;5054004;28;19968;-70
2022/06/15 09:33:09;;;;;;;;;;;27.80;51.10;;;;;;5054085;28;20010;-70
2022/06/15 09:35:41;;;;;;;;;;;27.90;50.50;;;;;;5053039;28;19958;-71
2022/06/15 09:38:10;;;;;;;;;;;27.90;49.40;;;;;;5054549;28;19905;-71
2022/06/15 09:40:46;;;;;;;;;;;28.00;50.20;;;;;;5054238;28;19919;-71
2022/06/15 09:43:20;;;;;;;;;;;28.00;49.50;;;;;;5054582;28;19911;-71
2022/06/15 09:45:57;;;;;;;;;;;28.10;49.60;;;;;;5054107;28;19904;-70
2022/06/15 09:48:42;;;;;;;;;;;28.10;49.30;;;;;;5053734;28;19905;-70
2022/06/15 09:51:17;;;;;;;;;;;28.20;49.60;;;;;;5046175;28;19905;-71
2022/06/15 09:53:48;;;;;;;;;;;28.30;48.30;;;;;;5053911;28;19912;-70
2022/06/15 09:56:15;;;;;;;;;;;28.40;48.70;;;;;;5053941;28;19909;-71
2022/06/15 09:58:51;;;;;;;;;;;28.40;48.50;;;;;;5054096;28;19904;-71
2022/06/15 10:01:18;;;;;;;;;;;28.50;48.90;;;;;;5052236;28;20332;-70
2022/06/15 10:03:46;;;;;;;;;;;28.50;49.00;;;;;;5051112;28;20380;-72
2022/06/15 10:06:21;;;;;;;;;;;28.60;47.80;;;;;;5051132;28;19956;-70
2022/06/15 10:08:47;;;;;;;;;;;28.60;48.80;;;;;;5053092;28;19905;-70
2022/06/15 10:11:16;;;;;;;;;;;28.60;50.80;;;;;;5053834;28;19911;-70
2022/06/15 10:13:43;;;;;;;;;;;28.70;48.40;;;;;;5053466;28;19916;-70
2022/06/15 10:16:15;;;;;;;;;;;28.70;48.80;;;;;;5053568;28;19908;-71
2022/06/15 10:18:51;;;;;;;;;;;28.80;49.10;;;;;;5053736;28;19927;-70
2022/06/15 10:21:17;;;;;;;;;;;28.80;49.00;;;;;;5053823;28;20249;-71
2022/06/15 10:23:50;;;;;;;;;;;28.90;48.60;;;;;;5053575;28;20011;-71
2022/06/15 10:26:42;;;;;;;;;;;28.90;47.80;;;;;;5053440;28;19905;-70
2022/06/15 10:29:23;;;;;;;;;;;28.90;50.10;;;;;;5051416;28;19905;-71
2022/06/15 10:32:08;;;;;;;;;;;29.00;48.70;;;;;;5053349;28;19911;-70
2022/06/15 10:34:49;;;;;;;;;;;29.00;48.00;;;;;;5053290;28;19911;-71
2022/06/15 10:37:17;;;;;;;;;;;29.10;48.90;;;;;;5053484;28;19959;-71
2022/06/15 10:39:46;;;;;;;;;;;29.20;46.50;;;;;;5052667;28;19905;-70
2022/06/15 10:42:30;;;;;;;;;;;29.20;47.50;;;;;;5053230;28;19920;-68
2022/06/15 10:45:00;;;;;;;;;;;29.30;48.60;;;;;;5053485;28;19904;-68
2022/06/15 10:47:27;;;;;;;;;;;29.30;48.90;;;;;;5053259;28;20323;-68
2022/06/15 10:50:00;;;;;;;;;;;29.40;48.10;;;;;;5049935;28;20384;-69
2022/06/15 10:52:33;;;;;;;;;;;29.40;46.70;;;;;;5050634;28;20281;-70
2022/06/15 11:04:09;;;;;;;;;;;29.50;46.60;;;;;;5063797;28;20349;-69
2022/06/15 11:06:40;;;;;;;;;;;29.60;47.30;;;;;;5057408;28;20003;-69
2022/06/15 11:09:15;;;;;;;;;;;29.60;47.60;;;;;;5057143;28;19982;-69
2022/06/15 11:11:40;;;;;;;;;;;29.70;47.00;;;;;;5056985;28;20288;-69
2022/06/15 11:14:07;;;;;;;;;;;29.70;48.00;;;;;;5056949;28;20008;-69
2022/06/15 11:19:20;;;;;;;;;;;29.90;47.40;;;;;;5057270;28;19912;-69
2022/06/15 11:21:48;;;;;;;;;;;30.00;46.20;;;;;;5057648;28;19912;-68
2022/06/15 11:24:25;;;;;;;;;;;30.00;46.40;;;;;;5056843;28;19908;-68
2022/06/15 11:26:57;;;;;;;;;;;30.00;44.30;;;;;;5057212;28;19905;-69
2022/06/15 11:29:28;;;;;;;;;;;30.00;45.00;;;;;;5056978;28;19950;-69
2022/06/15 11:31:55;;;;;;;;;;;30.10;44.90;;;;;;5054857;28;19916;-68
2022/06/15 11:34:24;;;;;;;;;;;30.10;44.70;;;;;;5054156;28;19955;-68
2022/06/15 11:36:56;;;;;;;;;;;30.10;45.20;;;;;;5053940;28;19908;-68
2022/06/15 11:39:23;;;;;;;;;;;30.10;45.10;;;;;;5055955;28;19905;-67
2022/06/15 11:41:54;;;;;;;;;;;30.10;45.30;;;;;;5056794;28;19913;-67
2022/06/15 11:44:31;;;;;;;;;;;30.20;45.70;;;;;;5056320;28;19916;-67
2022/06/15 11:47:15;;;;;;;;;;;30.30;47.60;;;;;;5056274;28;19951;-67
2022/06/15 11:49:47;;;;;;;;;;;30.30;46.20;;;;;;5056453;28;19905;-67
2022/06/15 11:52:27;;;;;;;;;;;30.30;45.00;;;;;;5055853;28;19911;-67
2022/06/15 11:54:56;;;;;;;;;;;30.40;46.00;;;;;;5056043;28;19915;-67
2022/06/15 11:57:34;;;;;;;;;;;30.40;46.70;;;;;;5056401;28;19908;-68
2022/06/15 12:00:14;;;;;;;;;;;30.40;45.50;;;;;;5054571;28;19912;-68
2022/06/15 12:02:58;;;;;;;;;;;30.40;45.90;;;;;;5055403;28;19904;-67
2022/06/15 12:05:38;;;;;;;;;;;30.40;45.60;;;;;;5055945;28;19947;-68
2022/06/15 12:08:15;;;;;;;;;;;30.50;46.70;;;;;;5055878;28;20003;-67
2022/06/15 12:10:40;;;;;;;;;;;30.50;46.20;;;;;;5055072;28;19904;-67
2022/06/15 12:13:11;;;;;;;;;;;30.50;44.70;;;;;;5054268;28;19916;-67
2022/06/15 12:15:40;;;;;;;;;;;30.50;46.10;;;;;;5054439;28;19991;-69
2022/06/15 12:18:21;;;;;;;;;;;30.60;46.60;;;;;;5054458;28;20349;-67
2022/06/15 12:20:46;;;;;;;;;;;30.60;46.20;;;;;;5055437;28;19959;-68
2022/06/15 12:23:15;;;;;;;;;;;30.60;46.50;;;;;;5055664;28;20315;-67
2022/06/15 12:25:48;;;;;;;;;;;30.60;44.90;;;;;;5055340;28;19911;-68
2022/06/15 12:28:22;;;;;;;;;;;30.60;46.30;;;;;;5055494;28;19978;-69
2022/06/15 12:30:57;;;;;;;;;;;30.60;45.80;;;;;;5055378;28;19911;-70
2022/06/15 12:33:31;;;;;;;;;;;30.60;46.60;;;;;;5055229;28;19905;-70
2022/06/15 12:36:09;;;;;;;;;;;30.60;46.40;;;;;;5055437;28;19904;-70
2022/06/15 12:38:56;;;;;;;;;;;30.60;46.60;;;;;;5055109;28;19913;-69
2022/06/15 12:44:14;;;;;;;;;;;30.70;47.50;;;;;;5055725;28;19958;-70
2022/06/15 12:46:40;;;;;;;;;;;30.70;45.40;;;;;;5055147;28;19905;-69
2022/06/15 12:49:26;;;;;;;;;;;30.60;45.00;;;;;;5055593;28;20424;-70
2022/06/15 12:51:51;;;;;;;;;;;30.60;44.60;;;;;;5054905;28;20371;-69
2022/06/15 12:54:27;;;;;;;;;;;30.60;45.10;;;;;;5054725;28;19905;-70
2022/06/15 12:57:08;;;;;;;;;;;30.60;44.30;;;;;;5054986;28;19999;-71
2022/06/15 12:59:37;;;;;;;;;;;30.50;43.80;;;;;;5054916;28;19911;-71
2022/06/15 13:02:03;;;;;;;;;;;30.50;45.10;;;;;;5055028;28;19974;-69
2022/06/15 13:04:46;;;;;;;;;;;30.50;44.40;;;;;;5054554;28;20353;-68
2022/06/15 13:07:18;;;;;;;;;;;30.40;42.80;;;;;;5052188;28;19954;-70
2022/06/15 13:10:03;;;;;;;;;;;30.40;43.40;;;;;;5052205;28;19911;-69
2022/06/15 13:12:41;;;;;;;;;;;30.40;42.20;;;;;;5054002;28;19931;-70
2022/06/15 13:15:16;;;;;;;;;;;30.40;43.60;;;;;;5054776;28;19935;-70
2022/06/15 13:20:53;;;;;;;;;;;30.30;43.20;;;;;;5054399;28;20316;-69
2022/06/15 13:23:30;;;;;;;;;;;30.30;43.60;;;;;;5054402;28;19905;-69
2022/06/15 13:25:58;;;;;;;;;;;30.30;44.00;;;;;;5054404;28;19911;-69
2022/06/15 13:28:27;;;;;;;;;;;30.30;42.10;;;;;;5054181;28;19909;-69
2022/06/15 13:30:57;;;;;;;;;;;30.30;43.10;;;;;;5053900;28;20381;-69
2022/06/15 13:33:43;;;;;;;;;;;30.30;42.90;;;;;;5053956;28;20397;-68
2022/06/15 13:36:11;;;;;;;;;;;30.30;42.90;;;;;;5054253;28;19905;-69
2022/06/15 13:38:38;;;;;;;;;;;30.30;43.50;;;;;;5054131;28;20254;-69
2022/06/15 13:41:25;;;;;;;;;;;30.30;43.40;;;;;;5053894;28;19917;-67
2022/06/15 13:43:51;;;;;;;;;;;30.40;42.10;;;;;;5054292;28;19911;-69
2022/06/15 13:46:26;;;;;;;;;;;30.40;42.90;;;;;;5054172;28;19913;-69
2022/06/15 13:48:53;;;;;;;;;;;30.40;43.50;;;;;;5054194;28;19911;-69
2022/06/15 13:51:30;;;;;;;;;;;30.50;42.30;;;;;;5053880;28;19904;-69
2022/06/15 13:54:01;;;;;;;;;;;30.40;41.90;;;;;;5054546;28;19909;-69
2022/06/15 13:56:32;;;;;;;;;;;30.40;42.40;;;;;;5054409;28;19905;-68
2022/06/15 13:59:09;;;;;;;;;;;30.40;43.00;;;;;;5054260;28;19995;-69
2022/06/15 14:01:34;;;;;;;;;;;30.30;42.20;;;;;;5054031;28;19912;-69
2022/06/15 14:04:06;;;;;;;;;;;30.30;43.00;;;;;;5053580;28;19915;-69
2022/06/15 14:06:43;;;;;;;;;;;30.30;43.00;;;;;;5053576;28;19905;-69
2022/06/15 14:09:20;;;;;;;;;;;30.30;43.90;;;;;;5053649;28;20340;-69
2022/06/15 14:12:01;;;;;;;;;;;30.40;43.60;;;;;;5053541;28;19904;-69
2022/06/15 14:14:46;;;;;;;;;;;30.40;43.40;;;;;;5053528;28;20270;-68
2022/06/15 14:17:24;;;;;;;;;;;30.40;42.00;;;;;;5053961;28;19958;-70
2022/06/15 14:19:56;;;;;;;;;;;30.40;42.90;;;;;;5053998;28;19961;-69
2022/06/15 14:22:22;;;;;;;;;;;30.40;41.70;;;;;;5053613;28;19909;-70
2022/06/15 14:24:48;;;;;;;;;;;30.30;41.30;;;;;;5053485;28;20018;-69
2022/06/15 14:27:34;;;;;;;;;;;30.20;42.00;;;;;;5053479;28;19962;-70
2022/06/15 14:30:01;;;;;;;;;;;30.20;42.00;;;;;;5053369;28;19908;-69
2022/06/15 14:32:29;;;;;;;;;;;30.10;41.50;;;;;;5053675;28;19905;-70
2022/06/15 14:35:12;;;;;;;;;;;30.00;41.50;;;;;;5053446;28;19904;-70
2022/06/15 14:37:38;;;;;;;;;;;30.00;42.80;;;;;;5053491;28;19931;-69
2022/06/15 14:40:04;;;;;;;;;;;30.00;42.80;;;;;;5052266;28;19912;-69
2022/06/15 14:42:54;;;;;;;;;;;29.90;42.60;;;;;;5053157;28;19905;-69
2022/06/15 14:45:20;;;;;;;;;;;29.90;43.20;;;;;;5053355;28;20008;-69
2022/06/15 14:47:50;;;;;;;;;;;29.90;42.30;;;;;;5052727;28;19909;-69
2022/06/15 14:50:15;;;;;;;;;;;29.90;42.40;;;;;;5053093;28;19909;-69
2022/06/15 14:52:41;;;;;;;;;;;30.00;43.60;;;;;;5053067;28;20427;-70
2022/06/15 14:55:15;;;;;;;;;;;30.00;42.20;;;;;;5052915;28;19905;-68
2022/06/15 14:57:41;;;;;;;;;;;30.00;42.20;;;;;;5053086;28;19987;-69
2022/06/15 15:00:23;;;;;;;;;;;30.00;42.20;;;;;;5053036;28;20007;-69